sensor_id;sensor_type;location;lat;lon;timestamp;P1;durP1;ratioP1;P2;durP2;ratioP2
43580;SDS011;29175;51.030;4.606;2023-05-10T00:01:07;44.92;;;16.58;;
43580;SDS011;29175;51.030;4.606;2023-05-10T00:03:33;53.95;;;17.58;;
43580;SDS011;29175;51.030;4.606;2023-05-10T00:05:59;42.63;;;16.08;;
43580;SDS011;29175;51.030;4.606;2023-05-10T00:08:24;43.80;;;17.50;;
43580;SDS011;29175;51.030;4.606;2023-05-10T00:10:50;51.47;;;17.27;;
43580;SDS011;29175;51.030;4.606;2023-05-10T00:13:16;61.65;;;18.10;;
43580;SDS011;29175;51.030;4.606;2023-05-10T00:15:42;42.50;;;16.80;;
43580;SDS011;29175;51.030;4.606;2023-05-10T00:18:08;49.33;;;17.15;;
43580;SDS011;29175;51.030;4.606;2023-05-10T00:20:34;44.10;;;16.98;;
43580;SDS011;29175;51.030;4.606;2023-05-10T00:23:00;40.17;;;15.93;;
43580;SDS011;29175;51.030;4.606;2023-05-10T00:25:26;44.30;;;16.33;;
43580;SDS011;29175;51.030;4.606;2023-05-10T00:27:51;50.75;;;16.38;;
43580;SDS011;29175;51.030;4.606;2023-05-10T00:30:20;46.05;;;16.38;;
43580;SDS011;29175;51.030;4.606;2023-05-10T00:32:46;51.72;;;16.98;;
43580;SDS011;29175;51.030;4.606;2023-05-10T00:35:13;46.17;;;16.10;;
43580;SDS011;29175;51.030;4.606;2023-05-10T00:37:39;53.85;;;17.27;;
43580;SDS011;29175;51.030;4.606;2023-05-10T00:40:05;44.90;;;16.23;;
43580;SDS011;29175;51.030;4.606;2023-05-10T00:42:32;57.70;;;16.58;;
43580;SDS011;29175;51.030;4.606;2023-05-10T00:44:58;47.67;;;15.95;;
43580;SDS011;29175;51.030;4.606;2023-05-10T00:47:24;50.38;;;17.05;;
43580;SDS011;29175;51.030;4.606;2023-05-10T00:49:50;51.60;;;16.48;;
43580;SDS011;29175;51.030;4.606;2023-05-10T00:52:16;53.70;;;16.52;;
43580;SDS011;29175;51.030;4.606;2023-05-10T00:54:42;51.78;;;15.80;;
43580;SDS011;29175;51.030;4.606;2023-05-10T00:57:08;48.72;;;16.35;;
43580;SDS011;29175;51.030;4.606;2023-05-10T00:59:34;58.25;;;15.88;;
43580;SDS011;29175;51.030;4.606;2023-05-10T01:02:00;42.13;;;14.82;;
43580;SDS011;29175;51.030;4.606;2023-05-10T01:04:26;47.65;;;15.20;;
43580;SDS011;29175;51.030;4.606;2023-05-10T01:06:53;48.95;;;15.90;;
43580;SDS011;29175;51.030;4.606;2023-05-10T01:09:19;44.15;;;15.57;;
43580;SDS011;29175;51.030;4.606;2023-05-10T01:11:46;46.42;;;16.38;;
43580;SDS011;29175;51.030;4.606;2023-05-10T01:14:13;53.83;;;16.88;;
43580;SDS011;29175;51.030;4.606;2023-05-10T01:16:42;56.22;;;16.70;;
43580;SDS011;29175;51.030;4.606;2023-05-10T01:19:18;47.70;;;15.88;;
43580;SDS011;29175;51.030;4.606;2023-05-10T01:32:55;44.33;;;16.38;;
43580;SDS011;29175;51.030;4.606;2023-05-10T01:35:40;51.00;;;17.95;;
43580;SDS011;29175;51.030;4.606;2023-05-10T01:38:19;57.95;;;18.30;;
43580;SDS011;29175;51.030;4.606;2023-05-10T01:43:43;58.38;;;18.88;;
43580;SDS011;29175;51.030;4.606;2023-05-10T01:46:24;51.60;;;18.00;;
43580;SDS011;29175;51.030;4.606;2023-05-10T01:48:57;44.17;;;17.52;;
43580;SDS011;29175;51.030;4.606;2023-05-10T01:51:25;59.97;;;18.33;;
43580;SDS011;29175;51.030;4.606;2023-05-10T01:54:00;62.15;;;17.83;;
43580;SDS011;29175;51.030;4.606;2023-05-10T01:56:28;50.25;;;17.05;;
43580;SDS011;29175;51.030;4.606;2023-05-10T01:58:57;62.13;;;18.13;;
43580;SDS011;29175;51.030;4.606;2023-05-10T02:01:25;52.30;;;18.35;;
43580;SDS011;29175;51.030;4.606;2023-05-10T02:03:52;55.45;;;18.13;;
43580;SDS011;29175;51.030;4.606;2023-05-10T02:06:20;59.10;;;18.92;;
43580;SDS011;29175;51.030;4.606;2023-05-10T02:08:49;53.22;;;19.58;;
43580;SDS011;29175;51.030;4.606;2023-05-10T02:11:17;53.40;;;18.75;;
43580;SDS011;29175;51.030;4.606;2023-05-10T02:13:47;56.40;;;19.13;;
43580;SDS011;29175;51.030;4.606;2023-05-10T02:16:16;62.57;;;19.93;;
43580;SDS011;29175;51.030;4.606;2023-05-10T02:18:43;61.03;;;19.75;;
43580;SDS011;29175;51.030;4.606;2023-05-10T02:21:10;58.58;;;19.63;;
43580;SDS011;29175;51.030;4.606;2023-05-10T02:23:37;56.97;;;19.13;;
43580;SDS011;29175;51.030;4.606;2023-05-10T02:26:04;57.03;;;20.30;;
43580;SDS011;29175;51.030;4.606;2023-05-10T02:28:31;61.90;;;20.10;;
43580;SDS011;29175;51.030;4.606;2023-05-10T02:30:58;61.60;;;21.10;;
43580;SDS011;29175;51.030;4.606;2023-05-10T02:33:24;57.05;;;19.20;;
43580;SDS011;29175;51.030;4.606;2023-05-10T02:35:51;61.95;;;20.80;;
43580;SDS011;29175;51.030;4.606;2023-05-10T02:38:18;56.85;;;18.92;;
43580;SDS011;29175;51.030;4.606;2023-05-10T02:40:46;65.90;;;21.27;;
43580;SDS011;29175;51.030;4.606;2023-05-10T02:43:14;61.33;;;20.15;;
43580;SDS011;29175;51.030;4.606;2023-05-10T02:45:42;69.70;;;21.77;;
43580;SDS011;29175;51.030;4.606;2023-05-10T02:48:10;63.03;;;21.55;;
43580;SDS011;29175;51.030;4.606;2023-05-10T02:50:36;64.75;;;21.00;;
43580;SDS011;29175;51.030;4.606;2023-05-10T02:53:15;62.58;;;20.77;;
43580;SDS011;29175;51.030;4.606;2023-05-10T02:55:42;60.72;;;21.30;;
43580;SDS011;29175;51.030;4.606;2023-05-10T02:58:14;58.15;;;19.65;;
43580;SDS011;29175;51.030;4.606;2023-05-10T03:00:40;53.67;;;18.92;;
43580;SDS011;29175;51.030;4.606;2023-05-10T03:03:05;66.90;;;20.30;;
43580;SDS011;29175;51.030;4.606;2023-05-10T03:05:31;58.22;;;19.73;;
43580;SDS011;29175;51.030;4.606;2023-05-10T03:07:58;66.85;;;19.92;;
43580;SDS011;29175;51.030;4.606;2023-05-10T03:10:26;55.58;;;19.00;;
43580;SDS011;29175;51.030;4.606;2023-05-10T03:13:07;57.30;;;18.98;;
43580;SDS011;29175;51.030;4.606;2023-05-10T03:15:53;54.58;;;17.80;;
43580;SDS011;29175;51.030;4.606;2023-05-10T03:18:42;58.95;;;18.38;;
43580;SDS011;29175;51.030;4.606;2023-05-10T03:21:32;56.97;;;18.95;;
43580;SDS011;29175;51.030;4.606;2023-05-10T03:23:59;57.60;;;18.92;;
43580;SDS011;29175;51.030;4.606;2023-05-10T03:26:32;66.63;;;21.42;;
43580;SDS011;29175;51.030;4.606;2023-05-10T03:28:58;74.22;;;23.75;;
43580;SDS011;29175;51.030;4.606;2023-05-10T03:31:25;75.10;;;24.63;;
43580;SDS011;29175;51.030;4.606;2023-05-10T03:33:52;78.03;;;23.80;;
43580;SDS011;29175;51.030;4.606;2023-05-10T03:36:18;73.43;;;23.30;;
43580;SDS011;29175;51.030;4.606;2023-05-10T03:38:44;67.03;;;20.73;;
43580;SDS011;29175;51.030;4.606;2023-05-10T03:41:10;66.55;;;22.63;;
43580;SDS011;29175;51.030;4.606;2023-05-10T03:43:36;72.68;;;22.67;;
43580;SDS011;29175;51.030;4.606;2023-05-10T03:46:02;70.75;;;23.65;;
43580;SDS011;29175;51.030;4.606;2023-05-10T03:48:29;63.53;;;21.55;;
43580;SDS011;29175;51.030;4.606;2023-05-10T03:50:55;75.10;;;21.42;;
43580;SDS011;29175;51.030;4.606;2023-05-10T03:53:21;64.45;;;21.58;;
43580;SDS011;29175;51.030;4.606;2023-05-10T03:55:48;64.68;;;22.40;;
43580;SDS011;29175;51.030;4.606;2023-05-10T03:58:14;69.40;;;23.38;;
43580;SDS011;29175;51.030;4.606;2023-05-10T04:00:40;75.85;;;24.77;;
43580;SDS011;29175;51.030;4.606;2023-05-10T04:03:14;71.63;;;21.92;;
43580;SDS011;29175;51.030;4.606;2023-05-10T04:05:40;81.35;;;25.10;;
43580;SDS011;29175;51.030;4.606;2023-05-10T04:08:06;70.00;;;23.73;;
43580;SDS011;29175;51.030;4.606;2023-05-10T04:10:32;73.88;;;24.75;;
43580;SDS011;29175;51.030;4.606;2023-05-10T04:12:58;70.07;;;26.42;;
43580;SDS011;29175;51.030;4.606;2023-05-10T04:15:24;77.65;;;25.52;;
43580;SDS011;29175;51.030;4.606;2023-05-10T04:17:49;80.10;;;25.67;;
43580;SDS011;29175;51.030;4.606;2023-05-10T04:20:16;76.43;;;25.10;;
43580;SDS011;29175;51.030;4.606;2023-05-10T04:22:42;80.68;;;26.38;;
43580;SDS011;29175;51.030;4.606;2023-05-10T04:25:08;78.32;;;24.90;;
43580;SDS011;29175;51.030;4.606;2023-05-10T04:27:34;79.57;;;26.58;;
43580;SDS011;29175;51.030;4.606;2023-05-10T04:30:00;77.82;;;26.42;;
43580;SDS011;29175;51.030;4.606;2023-05-10T04:32:26;77.10;;;25.17;;
43580;SDS011;29175;51.030;4.606;2023-05-10T04:34:52;81.22;;;26.98;;
43580;SDS011;29175;51.030;4.606;2023-05-10T04:37:18;80.15;;;27.08;;
43580;SDS011;29175;51.030;4.606;2023-05-10T04:39:44;82.70;;;27.17;;
43580;SDS011;29175;51.030;4.606;2023-05-10T04:42:09;92.93;;;27.42;;
43580;SDS011;29175;51.030;4.606;2023-05-10T04:44:36;93.65;;;27.55;;
43580;SDS011;29175;51.030;4.606;2023-05-10T04:47:02;97.05;;;31.30;;
43580;SDS011;29175;51.030;4.606;2023-05-10T04:49:28;98.72;;;30.77;;
43580;SDS011;29175;51.030;4.606;2023-05-10T04:51:54;114.43;;;34.80;;
43580;SDS011;29175;51.030;4.606;2023-05-10T04:54:20;110.70;;;32.65;;
43580;SDS011;29175;51.030;4.606;2023-05-10T04:56:46;118.78;;;33.38;;
43580;SDS011;29175;51.030;4.606;2023-05-10T04:59:12;91.90;;;30.45;;
43580;SDS011;29175;51.030;4.606;2023-05-10T05:01:38;111.38;;;34.60;;
43580;SDS011;29175;51.030;4.606;2023-05-10T05:04:04;115.90;;;35.80;;
43580;SDS011;29175;51.030;4.606;2023-05-10T05:06:30;116.07;;;34.42;;
43580;SDS011;29175;51.030;4.606;2023-05-10T05:08:56;121.70;;;37.65;;
43580;SDS011;29175;51.030;4.606;2023-05-10T05:11:21;114.32;;;36.97;;
43580;SDS011;29175;51.030;4.606;2023-05-10T05:13:47;120.00;;;37.65;;
43580;SDS011;29175;51.030;4.606;2023-05-10T05:16:13;117.30;;;36.50;;
43580;SDS011;29175;51.030;4.606;2023-05-10T05:18:38;106.47;;;35.05;;
43580;SDS011;29175;51.030;4.606;2023-05-10T05:21:17;100.53;;;31.80;;
43580;SDS011;29175;51.030;4.606;2023-05-10T05:23:44;112.63;;;35.60;;
43580;SDS011;29175;51.030;4.606;2023-05-10T05:26:10;121.10;;;35.60;;
43580;SDS011;29175;51.030;4.606;2023-05-10T05:28:36;114.28;;;35.40;;
43580;SDS011;29175;51.030;4.606;2023-05-10T05:31:05;107.20;;;33.20;;
43580;SDS011;29175;51.030;4.606;2023-05-10T05:36:02;91.57;;;32.05;;
43580;SDS011;29175;51.030;4.606;2023-05-10T05:38:29;95.25;;;31.50;;
43580;SDS011;29175;51.030;4.606;2023-05-10T05:40:54;91.88;;;29.45;;
43580;SDS011;29175;51.030;4.606;2023-05-10T05:43:21;79.00;;;26.65;;
43580;SDS011;29175;51.030;4.606;2023-05-10T05:45:47;90.95;;;29.00;;
43580;SDS011;29175;51.030;4.606;2023-05-10T05:48:13;78.15;;;26.70;;
43580;SDS011;29175;51.030;4.606;2023-05-10T05:50:39;86.85;;;28.90;;
43580;SDS011;29175;51.030;4.606;2023-05-10T05:53:05;78.57;;;27.60;;
43580;SDS011;29175;51.030;4.606;2023-05-10T05:55:31;87.47;;;26.77;;
43580;SDS011;29175;51.030;4.606;2023-05-10T05:57:57;70.30;;;24.50;;
43580;SDS011;29175;51.030;4.606;2023-05-10T06:00:23;78.35;;;24.20;;
43580;SDS011;29175;51.030;4.606;2023-05-10T06:02:49;69.28;;;25.30;;
43580;SDS011;29175;51.030;4.606;2023-05-10T06:05:14;74.15;;;23.90;;
43580;SDS011;29175;51.030;4.606;2023-05-10T06:07:40;67.35;;;23.02;;
43580;SDS011;29175;51.030;4.606;2023-05-10T06:10:09;71.63;;;24.50;;
43580;SDS011;29175;51.030;4.606;2023-05-10T06:12:35;71.00;;;23.85;;
43580;SDS011;29175;51.030;4.606;2023-05-10T06:15:01;68.18;;;23.70;;
43580;SDS011;29175;51.030;4.606;2023-05-10T06:17:27;66.65;;;22.60;;
43580;SDS011;29175;51.030;4.606;2023-05-10T06:19:53;63.78;;;21.13;;
43580;SDS011;29175;51.030;4.606;2023-05-10T06:22:19;62.25;;;20.50;;
43580;SDS011;29175;51.030;4.606;2023-05-10T06:24:47;65.88;;;23.42;;
43580;SDS011;29175;51.030;4.606;2023-05-10T06:27:13;68.70;;;23.73;;
43580;SDS011;29175;51.030;4.606;2023-05-10T06:29:39;59.85;;;21.55;;
43580;SDS011;29175;51.030;4.606;2023-05-10T06:32:05;66.13;;;22.02;;
43580;SDS011;29175;51.030;4.606;2023-05-10T06:34:31;68.30;;;21.17;;
43580;SDS011;29175;51.030;4.606;2023-05-10T06:36:57;55.92;;;19.42;;
43580;SDS011;29175;51.030;4.606;2023-05-10T06:39:23;63.42;;;20.17;;
43580;SDS011;29175;51.030;4.606;2023-05-10T06:41:48;63.67;;;21.90;;
43580;SDS011;29175;51.030;4.606;2023-05-10T06:44:14;59.22;;;20.70;;
43580;SDS011;29175;51.030;4.606;2023-05-10T06:46:40;53.10;;;20.48;;
43580;SDS011;29175;51.030;4.606;2023-05-10T06:49:06;57.30;;;21.05;;
43580;SDS011;29175;51.030;4.606;2023-05-10T06:51:32;69.50;;;22.30;;
43580;SDS011;29175;51.030;4.606;2023-05-10T06:53:58;60.90;;;22.17;;
43580;SDS011;29175;51.030;4.606;2023-05-10T06:56:25;58.53;;;20.63;;
43580;SDS011;29175;51.030;4.606;2023-05-10T06:58:51;64.97;;;21.80;;
43580;SDS011;29175;51.030;4.606;2023-05-10T07:01:16;50.45;;;19.98;;
43580;SDS011;29175;51.030;4.606;2023-05-10T07:03:42;51.78;;;19.98;;
43580;SDS011;29175;51.030;4.606;2023-05-10T07:06:08;61.17;;;19.77;;
43580;SDS011;29175;51.030;4.606;2023-05-10T07:08:34;60.42;;;20.45;;
43580;SDS011;29175;51.030;4.606;2023-05-10T07:11:03;54.05;;;20.27;;
43580;SDS011;29175;51.030;4.606;2023-05-10T07:13:32;51.72;;;19.73;;
43580;SDS011;29175;51.030;4.606;2023-05-10T07:15:59;54.13;;;20.58;;
43580;SDS011;29175;51.030;4.606;2023-05-10T07:18:25;57.33;;;21.83;;
43580;SDS011;29175;51.030;4.606;2023-05-10T07:20:51;57.80;;;21.02;;
43580;SDS011;29175;51.030;4.606;2023-05-10T07:23:17;52.88;;;18.50;;
43580;SDS011;29175;51.030;4.606;2023-05-10T07:25:44;53.70;;;19.38;;
43580;SDS011;29175;51.030;4.606;2023-05-10T07:28:14;55.80;;;19.50;;
43580;SDS011;29175;51.030;4.606;2023-05-10T07:30:41;55.35;;;18.80;;
43580;SDS011;29175;51.030;4.606;2023-05-10T07:33:08;50.83;;;18.60;;
43580;SDS011;29175;51.030;4.606;2023-05-10T07:35:35;53.85;;;19.55;;
43580;SDS011;29175;51.030;4.606;2023-05-10T07:38:01;46.63;;;18.08;;
43580;SDS011;29175;51.030;4.606;2023-05-10T07:40:27;40.58;;;17.50;;
43580;SDS011;29175;51.030;4.606;2023-05-10T07:42:53;44.08;;;17.05;;
43580;SDS011;29175;51.030;4.606;2023-05-10T07:45:19;51.60;;;17.27;;
43580;SDS011;29175;51.030;4.606;2023-05-10T07:47:45;49.42;;;17.77;;
43580;SDS011;29175;51.030;4.606;2023-05-10T07:50:11;51.58;;;18.00;;
43580;SDS011;29175;51.030;4.606;2023-05-10T07:52:36;46.03;;;16.77;;
43580;SDS011;29175;51.030;4.606;2023-05-10T07:55:02;41.60;;;16.85;;
43580;SDS011;29175;51.030;4.606;2023-05-10T07:57:28;48.22;;;18.55;;
43580;SDS011;29175;51.030;4.606;2023-05-10T07:59:55;47.53;;;16.58;;
43580;SDS011;29175;51.030;4.606;2023-05-10T08:02:21;39.35;;;17.23;;
43580;SDS011;29175;51.030;4.606;2023-05-10T08:04:47;42.97;;;16.45;;
43580;SDS011;29175;51.030;4.606;2023-05-10T08:07:13;48.50;;;17.90;;
43580;SDS011;29175;51.030;4.606;2023-05-10T08:09:38;40.45;;;16.50;;
43580;SDS011;29175;51.030;4.606;2023-05-10T08:12:04;49.75;;;18.42;;
43580;SDS011;29175;51.030;4.606;2023-05-10T08:14:30;59.03;;;20.48;;
43580;SDS011;29175;51.030;4.606;2023-05-10T08:16:56;55.40;;;18.83;;
43580;SDS011;29175;51.030;4.606;2023-05-10T08:19:22;54.55;;;19.20;;
43580;SDS011;29175;51.030;4.606;2023-05-10T08:21:48;50.95;;;18.48;;
43580;SDS011;29175;51.030;4.606;2023-05-10T08:24:14;55.47;;;18.88;;
43580;SDS011;29175;51.030;4.606;2023-05-10T08:26:40;50.55;;;18.08;;
43580;SDS011;29175;51.030;4.606;2023-05-10T08:29:06;49.72;;;18.02;;
43580;SDS011;29175;51.030;4.606;2023-05-10T08:31:32;41.25;;;16.48;;
43580;SDS011;29175;51.030;4.606;2023-05-10T08:33:58;50.67;;;17.40;;
43580;SDS011;29175;51.030;4.606;2023-05-10T08:36:23;40.47;;;16.20;;
43580;SDS011;29175;51.030;4.606;2023-05-10T08:38:53;44.20;;;16.80;;
43580;SDS011;29175;51.030;4.606;2023-05-10T08:41:22;47.40;;;16.52;;
43580;SDS011;29175;51.030;4.606;2023-05-10T08:43:53;42.33;;;16.13;;
43580;SDS011;29175;51.030;4.606;2023-05-10T08:46:20;38.10;;;14.90;;
43580;SDS011;29175;51.030;4.606;2023-05-10T08:48:49;39.95;;;15.43;;
43580;SDS011;29175;51.030;4.606;2023-05-10T08:51:22;38.03;;;13.80;;
43580;SDS011;29175;51.030;4.606;2023-05-10T08:53:51;40.28;;;14.38;;
43580;SDS011;29175;51.030;4.606;2023-05-10T08:56:17;46.65;;;15.13;;
43580;SDS011;29175;51.030;4.606;2023-05-10T08:58:44;41.13;;;13.65;;
43580;SDS011;29175;51.030;4.606;2023-05-10T09:01:10;33.80;;;14.02;;
43580;SDS011;29175;51.030;4.606;2023-05-10T09:03:40;32.00;;;12.55;;
43580;SDS011;29175;51.030;4.606;2023-05-10T09:06:06;36.97;;;13.60;;
43580;SDS011;29175;51.030;4.606;2023-05-10T09:08:33;33.90;;;12.35;;
43580;SDS011;29175;51.030;4.606;2023-05-10T09:10:59;37.08;;;12.85;;
43580;SDS011;29175;51.030;4.606;2023-05-10T09:13:26;36.35;;;13.00;;
43580;SDS011;29175;51.030;4.606;2023-05-10T09:15:53;45.72;;;13.85;;
43580;SDS011;29175;51.030;4.606;2023-05-10T09:18:19;39.00;;;12.48;;
43580;SDS011;29175;51.030;4.606;2023-05-10T09:20:45;39.05;;;13.40;;
43580;SDS011;29175;51.030;4.606;2023-05-10T09:23:11;42.22;;;13.48;;
43580;SDS011;29175;51.030;4.606;2023-05-10T09:25:36;38.90;;;12.77;;
43580;SDS011;29175;51.030;4.606;2023-05-10T09:28:05;37.78;;;12.02;;
43580;SDS011;29175;51.030;4.606;2023-05-10T09:30:32;38.53;;;12.65;;
43580;SDS011;29175;51.030;4.606;2023-05-10T09:32:59;32.15;;;12.40;;
43580;SDS011;29175;51.030;4.606;2023-05-10T09:35:26;32.58;;;11.23;;
43580;SDS011;29175;51.030;4.606;2023-05-10T09:37:53;29.52;;;10.52;;
43580;SDS011;29175;51.030;4.606;2023-05-10T09:40:23;37.50;;;11.23;;
43580;SDS011;29175;51.030;4.606;2023-05-10T09:42:52;29.77;;;10.95;;
43580;SDS011;29175;51.030;4.606;2023-05-10T09:45:19;38.80;;;12.20;;
43580;SDS011;29175;51.030;4.606;2023-05-10T09:47:45;33.17;;;10.95;;
43580;SDS011;29175;51.030;4.606;2023-05-10T09:50:11;29.23;;;10.10;;
43580;SDS011;29175;51.030;4.606;2023-05-10T09:52:53;37.67;;;10.93;;
43580;SDS011;29175;51.030;4.606;2023-05-10T09:55:24;33.03;;;10.10;;
43580;SDS011;29175;51.030;4.606;2023-05-10T09:58:02;35.55;;;9.15;;
43580;SDS011;29175;51.030;4.606;2023-05-10T10:00:33;30.55;;;10.32;;
43580;SDS011;29175;51.030;4.606;2023-05-10T10:03:00;27.63;;;9.70;;
43580;SDS011;29175;51.030;4.606;2023-05-10T10:05:28;27.13;;;9.88;;
43580;SDS011;29175;51.030;4.606;2023-05-10T10:07:55;30.67;;;9.68;;
43580;SDS011;29175;51.030;4.606;2023-05-10T10:10:23;29.35;;;9.18;;
43580;SDS011;29175;51.030;4.606;2023-05-10T10:12:50;27.42;;;9.07;;
43580;SDS011;29175;51.030;4.606;2023-05-10T10:15:16;25.55;;;9.43;;
43580;SDS011;29175;51.030;4.606;2023-05-10T10:17:42;27.45;;;9.43;;
43580;SDS011;29175;51.030;4.606;2023-05-10T10:20:09;22.50;;;8.55;;
43580;SDS011;29175;51.030;4.606;2023-05-10T10:22:36;18.98;;;8.82;;
43580;SDS011;29175;51.030;4.606;2023-05-10T10:25:02;24.45;;;9.32;;
43580;SDS011;29175;51.030;4.606;2023-05-10T10:27:43;24.80;;;9.85;;
43580;SDS011;29175;51.030;4.606;2023-05-10T10:35:47;25.10;;;9.45;;
43580;SDS011;29175;51.030;4.606;2023-05-10T10:38:13;24.05;;;8.52;;
43580;SDS011;29175;51.030;4.606;2023-05-10T10:40:39;23.35;;;8.93;;
43580;SDS011;29175;51.030;4.606;2023-05-10T10:46:12;28.52;;;9.35;;
43580;SDS011;29175;51.030;4.606;2023-05-10T10:48:39;38.08;;;12.60;;
43580;SDS011;29175;51.030;4.606;2023-05-10T10:51:05;32.30;;;10.75;;
43580;SDS011;29175;51.030;4.606;2023-05-10T10:53:32;24.65;;;9.45;;
43580;SDS011;29175;51.030;4.606;2023-05-10T10:56:05;26.17;;;9.75;;
43580;SDS011;29175;51.030;4.606;2023-05-10T10:58:36;22.33;;;8.00;;
43580;SDS011;29175;51.030;4.606;2023-05-10T11:01:15;27.05;;;8.35;;
43580;SDS011;29175;51.030;4.606;2023-05-10T11:06:30;21.08;;;7.80;;
43580;SDS011;29175;51.030;4.606;2023-05-10T11:09:10;21.70;;;7.75;;
43580;SDS011;29175;51.030;4.606;2023-05-10T11:11:53;20.98;;;7.05;;
43580;SDS011;29175;51.030;4.606;2023-05-10T11:14:23;19.35;;;6.43;;
43580;SDS011;29175;51.030;4.606;2023-05-10T11:16:49;21.95;;;7.55;;
43580;SDS011;29175;51.030;4.606;2023-05-10T11:19:16;22.80;;;7.25;;
43580;SDS011;29175;51.030;4.606;2023-05-10T11:21:49;19.23;;;7.78;;
43580;SDS011;29175;51.030;4.606;2023-05-10T11:24:17;25.95;;;7.38;;
43580;SDS011;29175;51.030;4.606;2023-05-10T11:26:46;18.85;;;8.07;;
43580;SDS011;29175;51.030;4.606;2023-05-10T11:29:15;20.90;;;7.90;;
43580;SDS011;29175;51.030;4.606;2023-05-10T11:31:42;17.55;;;7.75;;
43580;SDS011;29175;51.030;4.606;2023-05-10T11:34:09;21.00;;;7.78;;
43580;SDS011;29175;51.030;4.606;2023-05-10T11:36:36;19.60;;;7.07;;
43580;SDS011;29175;51.030;4.606;2023-05-10T11:39:02;19.17;;;7.72;;
43580;SDS011;29175;51.030;4.606;2023-05-10T11:41:29;16.88;;;6.90;;
43580;SDS011;29175;51.030;4.606;2023-05-10T11:43:56;16.42;;;6.55;;
43580;SDS011;29175;51.030;4.606;2023-05-10T11:46:23;15.85;;;6.35;;
43580;SDS011;29175;51.030;4.606;2023-05-10T11:48:52;15.48;;;6.88;;
43580;SDS011;29175;51.030;4.606;2023-05-10T11:51:20;15.45;;;6.35;;
43580;SDS011;29175;51.030;4.606;2023-05-10T11:53:47;16.27;;;6.82;;
43580;SDS011;29175;51.030;4.606;2023-05-10T11:56:15;14.18;;;6.55;;
43580;SDS011;29175;51.030;4.606;2023-05-10T11:58:41;15.57;;;5.93;;
43580;SDS011;29175;51.030;4.606;2023-05-10T12:01:07;18.00;;;6.82;;
43580;SDS011;29175;51.030;4.606;2023-05-10T12:03:34;12.30;;;5.88;;
43580;SDS011;29175;51.030;4.606;2023-05-10T12:06:01;14.95;;;5.70;;
43580;SDS011;29175;51.030;4.606;2023-05-10T12:08:28;14.02;;;6.20;;
43580;SDS011;29175;51.030;4.606;2023-05-10T12:11:03;14.70;;;6.47;;
43580;SDS011;29175;51.030;4.606;2023-05-10T12:13:38;12.80;;;5.93;;
43580;SDS011;29175;51.030;4.606;2023-05-10T12:16:21;11.95;;;5.65;;
43580;SDS011;29175;51.030;4.606;2023-05-10T12:18:52;15.10;;;6.03;;
43580;SDS011;29175;51.030;4.606;2023-05-10T12:21:22;13.00;;;5.68;;
43580;SDS011;29175;51.030;4.606;2023-05-10T12:23:52;15.57;;;5.65;;
43580;SDS011;29175;51.030;4.606;2023-05-10T12:26:23;11.98;;;6.13;;
43580;SDS011;29175;51.030;4.606;2023-05-10T12:28:52;12.63;;;5.68;;
43580;SDS011;29175;51.030;4.606;2023-05-10T12:31:18;11.98;;;5.72;;
43580;SDS011;29175;51.030;4.606;2023-05-10T12:33:44;15.55;;;5.47;;
43580;SDS011;29175;51.030;4.606;2023-05-10T12:36:12;12.07;;;5.47;;
43580;SDS011;29175;51.030;4.606;2023-05-10T12:38:40;14.60;;;5.63;;
43580;SDS011;29175;51.030;4.606;2023-05-10T12:41:13;14.05;;;5.95;;
43580;SDS011;29175;51.030;4.606;2023-05-10T12:43:40;14.75;;;5.88;;
43580;SDS011;29175;51.030;4.606;2023-05-10T12:48:36;11.13;;;5.78;;
43580;SDS011;29175;51.030;4.606;2023-05-10T12:51:03;13.18;;;5.50;;
43580;SDS011;29175;51.030;4.606;2023-05-10T12:53:30;13.75;;;5.57;;
43580;SDS011;29175;51.030;4.606;2023-05-10T12:55:56;11.85;;;5.40;;
43580;SDS011;29175;51.030;4.606;2023-05-10T12:58:22;13.48;;;5.80;;
43580;SDS011;29175;51.030;4.606;2023-05-10T13:13:28;13.98;;;6.10;;
43580;SDS011;29175;51.030;4.606;2023-05-10T13:15:54;14.85;;;5.90;;
43580;SDS011;29175;51.030;4.606;2023-05-10T13:18:19;15.18;;;5.80;;
43580;SDS011;29175;51.030;4.606;2023-05-10T13:20:45;17.08;;;6.40;;
43580;SDS011;29175;51.030;4.606;2023-05-10T13:23:11;17.30;;;5.15;;
43580;SDS011;29175;51.030;4.606;2023-05-10T13:25:37;15.98;;;6.05;;
43580;SDS011;29175;51.030;4.606;2023-05-10T13:28:03;14.10;;;5.45;;
43580;SDS011;29175;51.030;4.606;2023-05-10T13:30:28;17.80;;;6.68;;
43580;SDS011;29175;51.030;4.606;2023-05-10T13:32:54;18.40;;;5.85;;
43580;SDS011;29175;51.030;4.606;2023-05-10T13:35:20;15.55;;;4.90;;
43580;SDS011;29175;51.030;4.606;2023-05-10T13:37:46;13.35;;;5.30;;
43580;SDS011;29175;51.030;4.606;2023-05-10T13:40:11;13.40;;;5.60;;
43580;SDS011;29175;51.030;4.606;2023-05-10T13:42:38;15.35;;;5.75;;
43580;SDS011;29175;51.030;4.606;2023-05-10T13:45:04;17.70;;;5.90;;
43580;SDS011;29175;51.030;4.606;2023-05-10T13:47:31;13.88;;;5.03;;
43580;SDS011;29175;51.030;4.606;2023-05-10T13:49:57;12.25;;;5.10;;
43580;SDS011;29175;51.030;4.606;2023-05-10T13:52:23;16.48;;;5.97;;
43580;SDS011;29175;51.030;4.606;2023-05-10T13:54:49;14.60;;;5.93;;
43580;SDS011;29175;51.030;4.606;2023-05-10T13:57:17;13.30;;;4.88;;
43580;SDS011;29175;51.030;4.606;2023-05-10T13:59:43;19.05;;;6.40;;
43580;SDS011;29175;51.030;4.606;2023-05-10T14:02:08;15.05;;;5.82;;
43580;SDS011;29175;51.030;4.606;2023-05-10T14:04:35;14.27;;;6.30;;
43580;SDS011;29175;51.030;4.606;2023-05-10T14:07:01;13.73;;;5.82;;
43580;SDS011;29175;51.030;4.606;2023-05-10T14:09:27;16.55;;;6.07;;
43580;SDS011;29175;51.030;4.606;2023-05-10T14:11:52;19.25;;;6.30;;
43580;SDS011;29175;51.030;4.606;2023-05-10T14:14:18;19.48;;;7.30;;
43580;SDS011;29175;51.030;4.606;2023-05-10T14:16:44;14.75;;;6.72;;
43580;SDS011;29175;51.030;4.606;2023-05-10T14:19:10;16.67;;;7.47;;
43580;SDS011;29175;51.030;4.606;2023-05-10T14:21:37;17.77;;;6.63;;
43580;SDS011;29175;51.030;4.606;2023-05-10T14:24:03;16.67;;;7.30;;
43580;SDS011;29175;51.030;4.606;2023-05-10T14:26:29;17.20;;;6.15;;
43580;SDS011;29175;51.030;4.606;2023-05-10T14:28:55;18.13;;;8.15;;
43580;SDS011;29175;51.030;4.606;2023-05-10T14:31:21;20.67;;;8.07;;
43580;SDS011;29175;51.030;4.606;2023-05-10T14:33:49;16.73;;;7.68;;
43580;SDS011;29175;51.030;4.606;2023-05-10T14:36:15;17.02;;;6.95;;
43580;SDS011;29175;51.030;4.606;2023-05-10T14:38:42;18.92;;;7.32;;
43580;SDS011;29175;51.030;4.606;2023-05-10T14:41:07;22.05;;;8.27;;
43580;SDS011;29175;51.030;4.606;2023-05-10T14:43:33;18.65;;;7.22;;
43580;SDS011;29175;51.030;4.606;2023-05-10T14:45:59;16.58;;;6.85;;
43580;SDS011;29175;51.030;4.606;2023-05-10T14:48:25;13.85;;;6.90;;
43580;SDS011;29175;51.030;4.606;2023-05-10T14:50:51;17.20;;;7.50;;
43580;SDS011;29175;51.030;4.606;2023-05-10T14:53:17;17.65;;;7.85;;
43580;SDS011;29175;51.030;4.606;2023-05-10T14:55:43;21.25;;;7.95;;
43580;SDS011;29175;51.030;4.606;2023-05-10T14:58:09;17.63;;;7.65;;
43580;SDS011;29175;51.030;4.606;2023-05-10T15:00:35;20.00;;;9.05;;
43580;SDS011;29175;51.030;4.606;2023-05-10T15:03:01;19.70;;;9.50;;
43580;SDS011;29175;51.030;4.606;2023-05-10T15:05:27;23.55;;;8.60;;
43580;SDS011;29175;51.030;4.606;2023-05-10T15:07:52;19.95;;;8.20;;
43580;SDS011;29175;51.030;4.606;2023-05-10T15:10:18;22.67;;;9.18;;